Augusta, GA (30901)

10:07 AM EST on February 07, 2016 (GMT -0500)
Crossroads Market | | Change Station
CLOSE
Current Station
Personal Weather Station
Location: North Augusta, SC
Elevation: 279 ft
Nearby Weather Stations

Elev 279 ft 33.49 °N, 81.96 °W | Updated 1 second ago

Mostly Cloudy
Mostly Cloudy
42.6 °F
Feels Like 40 °F
N
4.0
Wind Variable Wind from NNW
Gusts 11.0 mph

Today
High -- | Low -- °F
--% Chance of Precip.
Yesterday
High -- | Low -- °F
Precip. -- in
Pressure 30.10 in
Visibility 10.0 miles
Clouds Few 8000 ft
Windchill 40 °F
Dew Point 25 °F
Humidity 49%
Rainfall 0.00 in
Snow Depth Not available.
7:19 AM 6:04 PM
Waning Crescent, 1% visible
METAR KDNL 071453Z AUTO 33009G19KT 10SM FEW080 07/M07 A3010 RMK AO2 SLP192 T00671067 53006
Pressure 30.10 in
Visibility 10.0 miles
Clouds Few 8000 ft
Windchill 40 °F
Dew Point 25 °F
Humidity 49%
Rainfall 0.00 in
Snow Depth Not available.
7:19 AM 6:04 PM
Waning Crescent, 1% visible
METAR KDNL 071453Z AUTO 33009G19KT 10SM FEW080 07/M07 A3010 RMK AO2 SLP192 T00671067 53006

10-Day Weather Forecast

Almanac

Astronomy

Feb. 07, 2016 Rise Set
Actual Time
Civil Twilight
Nautical Twilight
Astronomical Twilight
Moon
Length of Visible Light
Length of Day
Tomorrow will be .
, % of the Moon is Illuminated

Today's Extremes

State Highs State Lows

Community

WunderPhotos

Upload Photos

1,891,211 photos uploaded!

WunderBlog® & News

Nearby

Air Quality

  Air Quality AQ Index Pollutant
Not available.

Snow Depth

Station Depth Elevation

Earthquake Activity

City Distance Mag. Time & Date
Minimum magnitude displayed is 2.5.

Coastal Water Temperatures

Place Temperature

Stations

Nearby Weather Stations

Station Location Temp. Windchill Dew Point Humidity Wind Precip. Elev Updated Type
                   

Watches & Warnings

There are currently no watches in effect.